createdAt,value
2017-11-14T00:00:21.310Z,996.32
2017-11-14T00:01:21.296Z,996.36
2017-11-14T00:02:21.263Z,996.35
2017-11-14T00:03:21.237Z,996.34
2017-11-14T00:04:21.226Z,996.38
2017-11-14T00:05:21.185Z,996.39
2017-11-14T00:06:21.162Z,996.41
2017-11-14T00:07:21.140Z,996.40
2017-11-14T00:08:21.112Z,996.40
2017-11-14T00:09:21.100Z,996.37
2017-11-14T00:10:21.061Z,996.35
2017-11-14T00:11:21.044Z,996.38
2017-11-14T00:12:21.016Z,996.36
2017-11-14T00:13:20.985Z,996.38
2017-11-14T00:14:20.960Z,996.40
2017-11-14T00:15:20.937Z,996.41
2017-11-14T00:16:20.910Z,996.44
2017-11-14T00:17:20.882Z,996.44
2017-11-14T00:18:20.859Z,996.45
2017-11-14T00:19:20.830Z,996.44
2017-11-14T00:20:20.810Z,996.42
2017-11-14T00:21:20.788Z,996.44
2017-11-14T00:22:20.757Z,996.43
2017-11-14T00:23:20.743Z,996.44
2017-11-14T00:24:20.707Z,996.39
2017-11-14T00:25:20.719Z,996.40
2017-11-14T00:26:20.660Z,996.41
2017-11-14T00:27:20.627Z,996.38
2017-11-14T00:28:20.624Z,996.41
2017-11-14T00:29:20.583Z,996.39
2017-11-14T00:30:20.568Z,996.40
2017-11-14T00:31:20.538Z,996.41
2017-11-14T00:32:20.506Z,996.43
2017-11-14T00:33:20.483Z,996.39
2017-11-14T00:34:20.460Z,996.40
2017-11-14T00:35:20.434Z,996.44
2017-11-14T00:36:20.406Z,996.47
2017-11-14T00:37:20.379Z,996.50
2017-11-14T00:38:20.352Z,996.48
2017-11-14T00:39:20.352Z,996.50
2017-11-14T00:40:20.306Z,996.49
2017-11-14T00:41:20.282Z,996.50
2017-11-14T00:42:20.254Z,996.51
2017-11-14T00:43:20.230Z,996.51
2017-11-14T00:44:20.214Z,996.58
2017-11-14T00:45:20.186Z,996.59
2017-11-14T00:46:20.157Z,996.57
2017-11-14T00:47:20.127Z,996.56
2017-11-14T00:48:20.102Z,996.59
2017-11-14T00:49:20.078Z,996.53
2017-11-14T00:50:20.050Z,996.57
2017-11-14T00:51:20.031Z,996.59
2017-11-14T00:52:20.008Z,996.62
2017-11-14T00:53:19.984Z,996.65
2017-11-14T00:54:19.947Z,996.63
2017-11-14T00:55:19.929Z,996.65
2017-11-14T00:56:19.904Z,996.67
2017-11-14T00:57:22.729Z,996.70
2017-11-14T00:58:19.850Z,996.71
2017-11-14T00:59:19.838Z,996.79
2017-11-14T01:00:19.829Z,996.80
2017-11-14T01:01:19.799Z,996.75
2017-11-14T01:02:19.801Z,996.78
2017-11-14T01:03:19.723Z,996.77
2017-11-14T01:04:19.698Z,996.75
2017-11-14T01:05:19.672Z,996.73
2017-11-14T01:06:19.649Z,996.72
2017-11-14T01:07:19.626Z,996.73
2017-11-14T01:08:19.601Z,996.67
2017-11-14T01:09:19.568Z,996.68
2017-11-14T01:10:19.545Z,996.70
2017-11-14T01:11:19.519Z,996.69
2017-11-14T01:12:19.503Z,996.66
2017-11-14T01:13:19.471Z,996.70
2017-11-14T01:14:19.450Z,996.70
2017-11-14T01:15:19.425Z,996.73
2017-11-14T01:16:19.392Z,996.80
2017-11-14T01:17:19.370Z,996.75
2017-11-14T01:18:19.352Z,996.77
2017-11-14T01:19:19.321Z,996.78
2017-11-14T01:20:19.293Z,996.75
2017-11-14T01:21:19.267Z,996.77
2017-11-14T01:22:19.243Z,996.77
2017-11-14T01:23:19.220Z,996.79
2017-11-14T01:24:19.190Z,996.77
2017-11-14T01:25:19.166Z,996.78
2017-11-14T01:26:19.142Z,996.80
2017-11-14T01:27:19.113Z,996.79
2017-11-14T01:28:19.107Z,996.85
2017-11-14T01:29:19.072Z,996.82
2017-11-14T01:30:19.042Z,996.82
2017-11-14T01:31:19.030Z,996.78
2017-11-14T01:32:18.989Z,996.80
2017-11-14T01:33:18.973Z,996.80
2017-11-14T01:34:18.949Z,996.76
2017-11-14T01:35:18.925Z,996.73
2017-11-14T01:36:18.894Z,996.73
2017-11-14T01:37:18.864Z,996.76
2017-11-14T01:38:18.872Z,996.76
2017-11-14T01:39:18.812Z,996.76
2017-11-14T01:40:18.787Z,996.75
2017-11-14T01:41:18.765Z,996.77
2017-11-14T01:42:18.742Z,996.78
2017-11-14T01:43:18.716Z,996.77
2017-11-14T01:44:18.687Z,996.81
2017-11-14T01:45:18.667Z,996.79
2017-11-14T01:46:18.637Z,996.77
2017-11-14T01:47:18.618Z,996.78
2017-11-14T01:48:18.599Z,996.78
2017-11-14T01:49:18.560Z,996.82
2017-11-14T01:50:18.535Z,996.84
2017-11-14T01:51:18.519Z,996.82
2017-11-14T01:52:18.484Z,996.88
2017-11-14T01:53:18.466Z,996.84
2017-11-14T01:54:18.435Z,996.86
2017-11-14T01:55:18.415Z,996.86
2017-11-14T01:56:18.387Z,996.84
2017-11-14T01:57:18.362Z,996.86
2017-11-14T01:58:18.334Z,996.81
2017-11-14T01:59:18.311Z,996.86
2017-11-14T02:00:18.289Z,996.85
2017-11-14T02:01:18.273Z,996.83
2017-11-14T02:02:18.241Z,996.87
2017-11-14T02:03:18.209Z,996.84
2017-11-14T02:04:18.184Z,996.81
2017-11-14T02:05:18.160Z,996.85
2017-11-14T02:06:18.144Z,996.87
2017-11-14T02:07:18.121Z,996.86
2017-11-14T02:08:18.089Z,996.85
2017-11-14T02:09:18.060Z,996.87
2017-11-14T02:10:18.045Z,996.86
2017-11-14T02:11:18.004Z,996.87
2017-11-14T02:12:17.981Z,996.87
2017-11-14T02:13:17.964Z,996.83
2017-11-14T02:14:17.940Z,996.89
2017-11-14T02:15:17.958Z,996.88
2017-11-14T02:16:17.884Z,996.88
2017-11-14T02:17:17.856Z,996.88
2017-11-14T02:18:17.832Z,996.87
2017-11-14T02:19:17.806Z,996.91
2017-11-14T02:20:17.784Z,996.90
2017-11-14T02:21:17.756Z,996.94
2017-11-14T02:22:17.732Z,996.95
2017-11-14T02:23:17.710Z,996.97
2017-11-14T02:24:17.681Z,996.98
2017-11-14T02:25:17.657Z,997.03
2017-11-14T02:26:17.635Z,997.09
2017-11-14T02:27:17.603Z,997.07
2017-11-14T02:28:45.281Z,997.09
2017-11-14T02:29:17.560Z,997.09
2017-11-14T02:30:17.529Z,997.11
2017-11-14T02:31:17.506Z,997.13
2017-11-14T02:32:17.479Z,997.16
2017-11-14T02:33:17.460Z,997.17
2017-11-14T02:34:17.437Z,997.11
2017-11-14T02:35:17.399Z,997.12
2017-11-14T02:36:17.382Z,997.13
2017-11-14T02:37:17.356Z,997.15
2017-11-14T02:38:17.324Z,997.15
2017-11-14T02:39:17.304Z,997.14
2017-11-14T02:40:17.277Z,997.08
2017-11-14T02:41:17.257Z,997.15
2017-11-14T02:42:17.229Z,997.18
2017-11-14T02:43:17.202Z,997.17
2017-11-14T02:44:17.188Z,997.13
2017-11-14T02:45:17.153Z,997.17
2017-11-14T02:46:17.124Z,997.16
2017-11-14T02:47:17.116Z,997.12
2017-11-14T02:48:17.084Z,997.13
2017-11-14T02:49:17.049Z,997.13
2017-11-14T02:50:17.028Z,997.15
2017-11-14T02:51:17.030Z,997.13
2017-11-14T02:52:16.975Z,997.14
2017-11-14T02:53:16.963Z,997.16
2017-11-14T02:54:16.932Z,997.16
2017-11-14T02:55:16.907Z,997.15
2017-11-14T02:56:16.875Z,997.12
2017-11-14T02:57:16.847Z,997.15
2017-11-14T02:58:16.825Z,997.16
2017-11-14T02:59:16.798Z,997.15
2017-11-14T03:00:16.775Z,997.18
2017-11-14T03:01:16.747Z,997.20
2017-11-14T03:02:16.724Z,997.23
2017-11-14T03:03:16.698Z,997.20
2017-11-14T03:04:16.675Z,997.23
2017-11-14T03:05:16.648Z,997.24
2017-11-14T03:06:16.620Z,997.20
2017-11-14T03:07:16.608Z,997.21
2017-11-14T03:08:16.577Z,997.23
2017-11-14T03:09:16.560Z,997.23
2017-11-14T03:10:16.522Z,997.24
2017-11-14T03:11:16.493Z,997.25
2017-11-14T03:12:16.479Z,997.25
2017-11-14T03:13:16.449Z,997.28
2017-11-14T03:14:16.427Z,997.30
2017-11-14T03:15:16.401Z,997.30
2017-11-14T03:16:16.371Z,997.34
2017-11-14T03:17:16.345Z,997.34
2017-11-14T03:18:16.320Z,997.34
2017-11-14T03:19:16.295Z,997.36
2017-11-14T03:20:16.269Z,997.36
2017-11-14T03:21:16.248Z,997.39
2017-11-14T03:22:16.220Z,997.38
2017-11-14T03:23:16.197Z,997.41
2017-11-14T03:24:16.171Z,997.36
2017-11-14T03:25:16.150Z,997.38
2017-11-14T03:26:16.121Z,997.36
2017-11-14T03:27:16.132Z,997.33
2017-11-14T03:28:16.118Z,997.34
2017-11-14T03:29:16.051Z,997.32
2017-11-14T03:30:16.016Z,997.33
2017-11-14T03:31:15.994Z,997.36
2017-11-14T03:32:15.970Z,997.40
2017-11-14T03:33:15.952Z,997.35
2017-11-14T03:34:15.928Z,997.38
2017-11-14T03:35:15.893Z,997.41
2017-11-14T03:36:15.868Z,997.42
2017-11-14T03:37:15.846Z,997.42
2017-11-14T03:38:15.818Z,997.41
2017-11-14T03:39:15.791Z,997.47
2017-11-14T03:40:15.767Z,997.46
2017-11-14T03:41:15.744Z,997.46
2017-11-14T03:42:15.718Z,997.45
2017-11-14T03:43:15.690Z,997.41
2017-11-14T03:44:15.666Z,997.44
2017-11-14T03:45:15.649Z,997.40
2017-11-14T03:46:15.614Z,997.40
2017-11-14T03:47:15.595Z,997.41
2017-11-14T03:48:15.568Z,997.40
2017-11-14T03:49:15.541Z,997.44
2017-11-14T03:50:15.514Z,997.41
2017-11-14T03:51:15.489Z,997.44
2017-11-14T03:52:15.464Z,997.45
2017-11-14T03:53:15.448Z,997.43
2017-11-14T03:54:15.415Z,997.44
2017-11-14T03:55:15.391Z,997.45
2017-11-14T03:56:15.365Z,997.49
2017-11-14T03:57:15.339Z,997.48
2017-11-14T03:58:15.314Z,997.46
2017-11-14T03:59:15.288Z,997.46
2017-11-14T04:00:15.263Z,997.44
2017-11-14T04:01:15.239Z,997.46
2017-11-14T04:02:15.213Z,997.46
2017-11-14T04:03:15.190Z,997.45
2017-11-14T04:04:15.193Z,997.49
2017-11-14T04:05:15.143Z,997.48
2017-11-14T04:06:15.112Z,997.46
2017-11-14T04:07:15.095Z,997.48
2017-11-14T04:08:15.060Z,997.52
2017-11-14T04:09:15.048Z,997.55
2017-11-14T04:10:15.011Z,997.56
2017-11-14T04:11:14.985Z,997.61
2017-11-14T04:12:14.967Z,997.56
2017-11-14T04:13:14.936Z,997.61
2017-11-14T04:14:14.917Z,997.55
2017-11-14T04:15:14.896Z,997.55
2017-11-14T04:16:14.860Z,997.61
2017-11-14T04:17:14.835Z,997.60
2017-11-14T04:18:14.816Z,997.63
2017-11-14T04:19:14.786Z,997.65
2017-11-14T04:20:14.764Z,997.64
2017-11-14T04:21:14.745Z,997.65
2017-11-14T04:22:14.709Z,997.68
2017-11-14T04:23:14.683Z,997.70
2017-11-14T04:24:14.660Z,997.72
2017-11-14T04:25:14.651Z,997.70
2017-11-14T04:26:14.605Z,997.70
2017-11-14T04:27:14.581Z,997.74
2017-11-14T04:28:14.557Z,997.74
2017-11-14T04:29:14.538Z,997.71
2017-11-14T04:30:14.514Z,997.75
2017-11-14T04:31:14.478Z,997.75
2017-11-14T04:32:14.458Z,997.71
2017-11-14T04:33:14.438Z,997.74
2017-11-14T04:34:14.410Z,997.72
2017-11-14T04:35:14.381Z,997.76
2017-11-14T04:36:14.359Z,997.72
2017-11-14T04:37:14.335Z,997.73
2017-11-14T04:38:14.303Z,997.70
2017-11-14T04:39:14.283Z,997.69
2017-11-14T04:40:14.258Z,997.72
2017-11-14T04:41:14.269Z,997.71
2017-11-14T04:42:14.202Z,997.74
2017-11-14T04:43:14.183Z,997.76
2017-11-14T04:44:14.151Z,997.77
2017-11-14T04:45:14.126Z,997.79
2017-11-14T04:46:14.099Z,997.79
2017-11-14T04:47:14.088Z,997.81
2017-11-14T04:48:14.054Z,997.81
2017-11-14T04:49:14.022Z,997.81
2017-11-14T04:50:14.003Z,997.83
2017-11-14T04:51:13.984Z,997.85
2017-11-14T04:52:13.948Z,997.87
2017-11-14T04:53:13.925Z,997.91
2017-11-14T04:54:13.898Z,997.88
2017-11-14T04:55:13.885Z,997.90
2017-11-14T04:56:13.860Z,997.89
2017-11-14T04:57:13.821Z,997.89
2017-11-14T04:58:13.818Z,997.92
2017-11-14T04:59:34.778Z,997.96
2017-11-14T05:00:13.744Z,997.98
2017-11-14T05:01:13.725Z,998.03
2017-11-14T05:02:13.699Z,998.03
2017-11-14T05:03:13.670Z,998.01
2017-11-14T05:04:13.647Z,998.05
2017-11-14T05:05:13.622Z,998.01
2017-11-14T05:06:13.596Z,998.02
2017-11-14T05:07:13.576Z,998.04
2017-11-14T05:08:13.545Z,998.02
2017-11-14T05:09:13.528Z,998.04
2017-11-14T05:10:13.494Z,998.02
2017-11-14T05:11:13.469Z,998.06
2017-11-14T05:12:13.457Z,998.05
2017-11-14T05:13:13.420Z,998.03
2017-11-14T05:14:13.392Z,998.07
2017-11-14T05:15:13.369Z,998.08
2017-11-14T05:16:13.343Z,998.08
2017-11-14T05:17:13.357Z,998.13
2017-11-14T05:18:13.290Z,998.14
2017-11-14T05:19:13.263Z,998.13
2017-11-14T05:20:13.241Z,998.15
2017-11-14T05:21:13.221Z,998.14
2017-11-14T05:22:13.190Z,998.16
2017-11-14T05:23:13.167Z,998.13
2017-11-14T05:24:13.140Z,998.15
2017-11-14T05:25:13.115Z,998.13
2017-11-14T05:26:13.092Z,998.12
2017-11-14T05:27:13.061Z,998.20
2017-11-14T05:28:13.035Z,998.20
2017-11-14T05:29:13.021Z,998.19
2017-11-14T05:30:12.989Z,998.22
2017-11-14T05:31:12.959Z,998.26
2017-11-14T05:32:12.937Z,998.24
2017-11-14T05:33:12.910Z,998.24
2017-11-14T05:34:12.886Z,998.27
2017-11-14T05:35:12.868Z,998.31
2017-11-14T05:36:12.833Z,998.36
2017-11-14T05:37:12.809Z,998.36
2017-11-14T05:38:12.792Z,998.33
2017-11-14T05:39:12.755Z,998.35
2017-11-14T05:40:12.756Z,998.33
2017-11-14T05:41:12.709Z,998.35
2017-11-14T05:42:12.690Z,998.32
2017-11-14T05:43:12.666Z,998.33
2017-11-14T05:44:12.634Z,998.31
2017-11-14T05:45:12.613Z,998.34
2017-11-14T05:46:12.601Z,998.34
2017-11-14T05:47:12.556Z,998.35
2017-11-14T05:48:12.548Z,998.37
2017-11-14T05:49:12.509Z,998.40
2017-11-14T05:50:12.486Z,998.43
2017-11-14T05:51:12.462Z,998.47
2017-11-14T05:52:12.433Z,998.48
2017-11-14T05:53:12.453Z,998.46
2017-11-14T05:54:12.407Z,998.50
2017-11-14T05:55:12.352Z,998.48
2017-11-14T05:56:12.327Z,998.51
2017-11-14T05:57:12.305Z,998.50
2017-11-14T05:58:12.290Z,998.52
2017-11-14T05:59:12.265Z,998.48
2017-11-14T06:00:12.236Z,998.51
2017-11-14T06:01:12.216Z,998.49
2017-11-14T06:02:12.193Z,998.49
2017-11-14T06:03:12.163Z,998.49
2017-11-14T06:04:12.134Z,998.48
2017-11-14T06:05:12.107Z,998.50
2017-11-14T06:06:12.082Z,998.51
2017-11-14T06:07:12.050Z,998.54
2017-11-14T06:08:12.034Z,998.53
2017-11-14T06:09:12.007Z,998.53
2017-11-14T06:10:11.977Z,998.53
2017-11-14T06:11:11.952Z,998.53
2017-11-14T06:12:11.928Z,998.53
2017-11-14T06:13:11.909Z,998.53
2017-11-14T06:14:11.876Z,998.54
2017-11-14T06:15:11.854Z,998.54
2017-11-14T06:16:11.832Z,998.52
2017-11-14T06:17:11.803Z,998.52
2017-11-14T06:18:11.776Z,998.54
2017-11-14T06:19:11.757Z,998.59
2017-11-14T06:20:11.732Z,998.60
2017-11-14T06:21:11.706Z,998.56
2017-11-14T06:22:11.680Z,998.54
2017-11-14T06:23:11.653Z,998.57
2017-11-14T06:24:11.625Z,998.58
2017-11-14T06:25:11.602Z,998.58
2017-11-14T06:26:11.581Z,998.61
2017-11-14T06:27:11.555Z,998.58
2017-11-14T06:28:11.529Z,998.61
2017-11-14T06:29:11.505Z,998.60
2017-11-14T06:30:11.521Z,998.63
2017-11-14T06:31:11.480Z,998.63
2017-11-14T06:32:11.442Z,998.67
2017-11-14T06:33:11.399Z,998.67
2017-11-14T06:34:11.388Z,998.71
2017-11-14T06:35:11.350Z,998.71
2017-11-14T06:36:11.335Z,998.73
2017-11-14T06:37:11.307Z,998.74
2017-11-14T06:38:11.285Z,998.75
2017-11-14T06:39:11.255Z,998.77
2017-11-14T06:40:11.230Z,998.78
2017-11-14T06:41:11.200Z,998.74
2017-11-14T06:42:11.178Z,998.79
2017-11-14T06:43:11.156Z,998.75
2017-11-14T06:44:11.126Z,998.77
2017-11-14T06:45:11.098Z,998.75
2017-11-14T06:46:11.076Z,998.75
2017-11-14T06:47:11.048Z,998.77
2017-11-14T06:48:11.040Z,998.80
2017-11-14T06:49:11.000Z,998.76
2017-11-14T06:50:10.980Z,998.80
2017-11-14T06:51:10.956Z,998.80
2017-11-14T06:52:10.946Z,998.82
2017-11-14T06:53:10.900Z,998.79
2017-11-14T06:54:10.880Z,998.80
2017-11-14T06:55:10.853Z,998.78
2017-11-14T06:56:10.821Z,998.80
2017-11-14T06:57:10.800Z,998.80
2017-11-14T06:58:10.781Z,998.80
2017-11-14T06:59:10.751Z,998.83
2017-11-14T07:00:10.731Z,998.82
2017-11-14T07:01:10.704Z,998.86
2017-11-14T07:02:10.675Z,998.87
2017-11-14T07:03:10.655Z,998.81
2017-11-14T07:04:10.622Z,998.85
2017-11-14T07:05:10.596Z,998.83
2017-11-14T07:06:10.570Z,998.85
2017-11-14T07:07:10.596Z,998.85
2017-11-14T07:08:10.523Z,998.87
2017-11-14T07:09:10.501Z,998.88
2017-11-14T07:10:10.477Z,998.89
2017-11-14T07:11:10.444Z,998.87
2017-11-14T07:12:10.422Z,998.89
2017-11-14T07:13:10.396Z,998.88
2017-11-14T07:14:10.411Z,998.87
2017-11-14T07:15:10.344Z,998.89
2017-11-14T07:16:10.318Z,998.85
2017-11-14T07:17:10.299Z,998.89
2017-11-14T07:18:10.273Z,998.95
2017-11-14T07:19:10.244Z,998.91
2017-11-14T07:20:10.223Z,998.90
2017-11-14T07:21:10.198Z,998.92
2017-11-14T07:22:10.177Z,998.93
2017-11-14T07:23:10.144Z,998.95
2017-11-14T07:24:10.117Z,998.99
2017-11-14T07:25:10.098Z,998.98
2017-11-14T07:26:10.075Z,998.96
2017-11-14T07:27:10.042Z,998.97
2017-11-14T07:28:10.021Z,998.96
2017-11-14T07:29:09.994Z,998.95
2017-11-14T07:30:09.967Z,998.94
2017-11-14T07:31:09.942Z,998.94
2017-11-14T07:32:09.927Z,998.92
2017-11-14T07:33:09.892Z,998.93
2017-11-14T07:34:09.867Z,998.94
2017-11-14T07:35:09.850Z,998.96
2017-11-14T07:36:09.817Z,998.96
2017-11-14T07:37:09.828Z,998.96
2017-11-14T07:38:09.772Z,998.97
2017-11-14T07:39:09.742Z,999.01
2017-11-14T07:40:09.721Z,998.99
2017-11-14T07:41:09.689Z,999.00
2017-11-14T07:42:09.667Z,999.00
2017-11-14T07:43:09.678Z,999.03
2017-11-14T07:44:09.615Z,999.04
2017-11-14T07:45:09.602Z,999.01
2017-11-14T07:46:09.570Z,999.06
2017-11-14T07:47:09.542Z,999.05
2017-11-14T07:48:09.585Z,999.03
2017-11-14T07:49:09.511Z,999.05
2017-11-14T07:50:09.465Z,999.04
2017-11-14T07:51:09.463Z,999.05
2017-11-14T07:52:09.412Z,999.08
2017-11-14T07:53:09.418Z,999.12
2017-11-14T07:54:09.366Z,999.10
2017-11-14T07:55:09.337Z,999.07
2017-11-14T07:56:09.319Z,999.10
2017-11-14T07:57:09.291Z,999.12
2017-11-14T07:58:09.267Z,999.14
2017-11-14T07:59:09.243Z,999.13
2017-11-14T08:00:11.835Z,999.18
2017-11-14T08:01:09.190Z,999.17
2017-11-14T08:02:09.162Z,999.19
2017-11-14T08:03:09.140Z,999.19
2017-11-14T08:04:09.113Z,999.20
2017-11-14T08:05:09.093Z,999.23
2017-11-14T08:06:09.068Z,999.23
2017-11-14T08:07:09.044Z,999.21
2017-11-14T08:08:09.011Z,999.23
2017-11-14T08:09:08.990Z,999.24
2017-11-14T08:10:08.965Z,999.25
2017-11-14T08:11:08.938Z,999.25
2017-11-14T08:12:08.911Z,999.20
2017-11-14T08:13:08.907Z,999.26
2017-11-14T08:14:08.866Z,999.24
2017-11-14T08:15:08.842Z,999.24
2017-11-14T08:16:08.811Z,999.25
2017-11-14T08:17:08.792Z,999.30
2017-11-14T08:18:08.769Z,999.28
2017-11-14T08:19:08.736Z,999.31
2017-11-14T08:20:08.758Z,999.29
2017-11-14T08:21:08.686Z,999.32
2017-11-14T08:22:08.678Z,999.36
2017-11-14T08:23:08.640Z,999.32
2017-11-14T08:24:08.611Z,999.29
2017-11-14T08:25:08.590Z,999.31
2017-11-14T08:26:08.576Z,999.30
2017-11-14T08:27:08.535Z,999.30
2017-11-14T08:28:08.512Z,999.33
2017-11-14T08:29:08.489Z,999.32
2017-11-14T08:30:08.464Z,999.36
2017-11-14T08:31:08.443Z,999.35
2017-11-14T08:32:08.412Z,999.38
2017-11-14T08:33:08.396Z,999.43
2017-11-14T08:34:08.365Z,999.43
2017-11-14T08:35:08.353Z,999.38
2017-11-14T08:36:08.319Z,999.42
2017-11-14T08:37:08.287Z,999.42
2017-11-14T08:38:08.291Z,999.43
2017-11-14T08:39:08.242Z,999.45
2017-11-14T08:40:08.212Z,999.47
2017-11-14T08:41:08.192Z,999.44
2017-11-14T08:42:08.165Z,999.50
2017-11-14T08:43:08.148Z,999.47
2017-11-14T08:44:08.117Z,999.49
2017-11-14T08:45:08.138Z,999.47
2017-11-14T08:46:08.070Z,999.47
2017-11-14T08:47:08.048Z,999.48
2017-11-14T08:48:08.017Z,999.48
2017-11-14T08:49:08.001Z,999.48
2017-11-14T08:50:07.973Z,999.53
2017-11-14T08:51:07.948Z,999.51
2017-11-14T08:52:07.919Z,999.51
2017-11-14T08:53:07.896Z,999.52
2017-11-14T08:54:07.870Z,999.53
2017-11-14T08:55:07.846Z,999.46
2017-11-14T08:56:07.822Z,999.50
2017-11-14T08:57:07.858Z,999.49
2017-11-14T08:58:07.783Z,999.51
2017-11-14T08:59:07.751Z,999.52
2017-11-14T09:00:07.735Z,999.53
2017-11-14T09:01:07.703Z,999.53
2017-11-14T09:02:07.691Z,999.51
2017-11-14T09:03:07.652Z,999.50
2017-11-14T09:04:07.629Z,999.48
2017-11-14T09:05:07.602Z,999.51
2017-11-14T09:06:07.585Z,999.54
2017-11-14T09:07:07.563Z,999.53
2017-11-14T09:08:07.530Z,999.57
2017-11-14T09:09:07.509Z,999.58
2017-11-14T09:10:07.484Z,999.58
2017-11-14T09:11:07.468Z,999.53
2017-11-14T09:12:07.450Z,999.56
2017-11-14T09:13:07.418Z,999.56
2017-11-14T09:14:07.387Z,999.50
2017-11-14T09:15:07.364Z,999.52
2017-11-14T09:16:07.341Z,999.52
2017-11-14T09:17:07.311Z,999.50
2017-11-14T09:18:07.289Z,999.53
2017-11-14T09:19:07.273Z,999.51
2017-11-14T09:20:07.254Z,999.53
2017-11-14T09:21:07.215Z,999.53
2017-11-14T09:22:07.192Z,999.53
2017-11-14T09:23:07.183Z,999.57
2017-11-14T09:24:07.147Z,999.58
2017-11-14T09:25:07.124Z,999.59
2017-11-14T09:26:07.115Z,999.64
2017-11-14T09:27:07.076Z,999.66
2017-11-14T09:28:07.050Z,999.66
2017-11-14T09:29:07.036Z,999.65
2017-11-14T09:30:07.008Z,999.71
2017-11-14T09:31:06.974Z,999.69
2017-11-14T09:32:06.966Z,999.76
2017-11-14T09:33:06.976Z,999.73
2017-11-14T09:34:06.920Z,999.73
2017-11-14T09:35:06.889Z,999.70
2017-11-14T09:36:06.859Z,999.70
2017-11-14T09:37:06.836Z,999.68
2017-11-14T09:38:06.814Z,999.73
2017-11-14T09:39:06.800Z,999.69
2017-11-14T09:40:06.772Z,999.79
2017-11-14T09:41:06.736Z,999.78
2017-11-14T09:42:06.712Z,999.80
2017-11-14T09:43:06.692Z,999.75
2017-11-14T09:44:06.676Z,999.81
2017-11-14T09:45:06.651Z,999.75
2017-11-14T09:46:06.619Z,999.80
2017-11-14T09:47:06.602Z,999.81
2017-11-14T09:48:06.572Z,999.80
2017-11-14T09:49:06.577Z,999.81
2017-11-14T09:50:06.522Z,999.84
2017-11-14T09:51:06.499Z,999.83
2017-11-14T09:52:06.495Z,999.80
2017-11-14T09:53:06.450Z,999.83
2017-11-14T09:54:06.432Z,999.86
2017-11-14T09:55:06.419Z,999.88
2017-11-14T09:56:06.380Z,999.89
2017-11-14T09:57:06.365Z,999.89
2017-11-14T09:58:06.330Z,999.89
2017-11-14T09:59:06.308Z,999.88
2017-11-14T10:00:06.285Z,999.84
2017-11-14T10:01:06.264Z,999.85
2017-11-14T10:02:06.238Z,999.84
2017-11-14T10:03:06.217Z,999.83
2017-11-14T10:04:06.195Z,999.81
2017-11-14T10:05:06.175Z,999.80
2017-11-14T10:06:06.146Z,999.77
2017-11-14T10:07:06.118Z,999.76
2017-11-14T10:08:06.092Z,999.80
2017-11-14T10:09:06.092Z,999.81
2017-11-14T10:10:06.045Z,999.77
2017-11-14T10:11:06.051Z,999.76
2017-11-14T10:12:06.002Z,999.76
2017-11-14T10:13:05.979Z,999.76
2017-11-14T10:14:05.998Z,999.76
2017-11-14T10:15:05.936Z,999.72
2017-11-14T10:16:05.902Z,999.74
2017-11-14T10:17:05.881Z,999.70
2017-11-14T10:18:05.854Z,999.68
2017-11-14T10:19:05.837Z,999.68
2017-11-14T10:20:05.826Z,999.64
2017-11-14T10:21:05.783Z,999.64
2017-11-14T10:22:05.780Z,999.60
2017-11-14T10:23:05.751Z,999.62
2017-11-14T10:24:05.721Z,999.59
2017-11-14T10:25:05.693Z,999.58
2017-11-14T10:26:05.664Z,999.63
2017-11-14T10:27:05.638Z,999.55
2017-11-14T10:28:05.625Z,999.54
2017-11-14T10:29:05.599Z,999.52
2017-11-14T10:30:05.568Z,999.55
2017-11-14T10:31:33.328Z,999.46
2017-11-14T10:32:05.522Z,999.45
2017-11-14T10:33:05.504Z,999.47
2017-11-14T10:34:05.483Z,999.45
2017-11-14T10:35:05.460Z,999.45
2017-11-14T10:36:05.489Z,999.40
2017-11-14T10:37:05.403Z,999.40
2017-11-14T10:38:05.380Z,999.39
2017-11-14T10:39:05.356Z,999.40
2017-11-14T10:40:05.346Z,999.40
2017-11-14T10:41:05.309Z,999.39
2017-11-14T10:42:05.289Z,999.35
2017-11-14T10:43:05.267Z,999.37
2017-11-14T10:44:05.245Z,999.36
2017-11-14T10:45:05.227Z,999.38
2017-11-14T10:46:05.191Z,999.38
2017-11-14T10:47:05.165Z,999.38
2017-11-14T10:48:05.151Z,999.38
2017-11-14T10:49:05.120Z,999.38
2017-11-14T10:50:05.108Z,999.39
2017-11-14T10:51:05.073Z,999.38
2017-11-14T10:52:05.087Z,999.44
2017-11-14T10:53:05.029Z,999.46
2017-11-14T10:54:05.014Z,999.41
2017-11-14T10:55:04.983Z,999.43
2017-11-14T10:56:04.956Z,999.42
2017-11-14T10:57:04.930Z,999.40
2017-11-14T10:58:04.912Z,999.43
2017-11-14T10:59:04.884Z,999.47
2017-11-14T11:00:04.860Z,999.47
2017-11-14T11:01:04.843Z,999.43
2017-11-14T11:02:04.832Z,999.48
2017-11-14T11:03:04.793Z,999.45
2017-11-14T11:04:04.775Z,999.50
2017-11-14T11:05:04.748Z,999.48
2017-11-14T11:06:04.724Z,999.40
2017-11-14T11:07:04.703Z,999.42
2017-11-14T11:08:04.676Z,999.41
2017-11-14T11:09:04.654Z,999.39
2017-11-14T11:10:04.641Z,999.39
2017-11-14T11:11:04.605Z,999.40
2017-11-14T11:12:04.582Z,999.37
2017-11-14T11:13:04.558Z,999.38
2017-11-14T11:14:04.540Z,999.39
2017-11-14T11:15:04.514Z,999.41
2017-11-14T11:16:04.491Z,999.33
2017-11-14T11:17:04.466Z,999.33
2017-11-14T11:18:04.449Z,999.30
2017-11-14T11:19:04.431Z,999.41
2017-11-14T11:20:04.412Z,999.32
2017-11-14T11:21:04.376Z,999.26
2017-11-14T11:22:04.358Z,999.28
2017-11-14T11:23:04.337Z,999.26
2017-11-14T11:24:04.328Z,999.27
2017-11-14T11:25:04.280Z,999.20
2017-11-14T11:26:04.260Z,999.24
2017-11-14T11:27:04.243Z,999.19
2017-11-14T11:28:04.220Z,999.16
2017-11-14T11:29:04.189Z,999.15
2017-11-14T11:30:04.194Z,999.24
2017-11-14T11:31:04.150Z,999.24
2017-11-14T11:32:04.837Z,999.20
2017-11-14T11:33:04.115Z,999.24
2017-11-14T11:34:04.072Z,999.20
2017-11-14T11:35:04.055Z,999.16
2017-11-14T11:36:04.028Z,999.19
2017-11-14T11:37:04.006Z,999.18
2017-11-14T11:38:03.980Z,999.18
2017-11-14T11:39:03.957Z,999.20
2017-11-14T11:40:03.937Z,999.14
2017-11-14T11:41:03.916Z,999.19
2017-11-14T11:42:03.889Z,999.24
2017-11-14T11:43:04.311Z,999.17
2017-11-14T11:44:03.844Z,999.19
2017-11-14T11:45:03.825Z,999.24
2017-11-14T11:46:03.795Z,999.26
2017-11-14T11:47:03.781Z,999.22
2017-11-14T11:48:03.762Z,999.19
2017-11-14T11:49:03.732Z,999.22
2017-11-14T11:50:03.719Z,999.21
2017-11-14T11:51:03.682Z,999.26
2017-11-14T11:52:03.660Z,999.18
2017-11-14T11:53:03.654Z,999.22
2017-11-14T11:54:03.611Z,999.20
2017-11-14T11:55:03.589Z,999.25
2017-11-14T11:56:03.567Z,999.24
2017-11-14T11:57:03.547Z,999.24
2017-11-14T11:58:03.526Z,999.20
2017-11-14T11:59:03.500Z,999.25
2017-11-14T12:00:03.486Z,999.26
2017-11-14T12:01:03.453Z,999.26
2017-11-14T12:02:03.428Z,999.28
2017-11-14T12:03:03.404Z,999.33
2017-11-14T12:04:03.413Z,999.32
2017-11-14T12:05:03.379Z,999.22
2017-11-14T12:06:03.332Z,999.24
2017-11-14T12:07:03.326Z,999.27
2017-11-14T12:08:03.294Z,999.25
2017-11-14T12:09:03.268Z,999.29
2017-11-14T12:10:03.246Z,999.31
2017-11-14T12:11:03.217Z,999.21
2017-11-14T12:12:03.196Z,999.26
2017-11-14T12:13:03.172Z,999.19
2017-11-14T12:14:03.165Z,999.22
2017-11-14T12:15:03.127Z,999.21
2017-11-14T12:16:03.114Z,999.22
2017-11-14T12:17:03.085Z,999.24
2017-11-14T12:18:03.057Z,999.21
2017-11-14T12:19:03.033Z,999.32
2017-11-14T12:20:03.017Z,999.24
2017-11-14T12:21:02.986Z,999.19
2017-11-14T12:22:02.967Z,999.22
2017-11-14T12:23:02.940Z,999.18
2017-11-14T12:24:02.920Z,999.22
2017-11-14T12:25:02.897Z,999.17
2017-11-14T12:26:02.885Z,999.16
2017-11-14T12:27:02.850Z,999.15
2017-11-14T12:28:02.911Z,999.18